< < Back
Terminal Aerodrome Forecast


Current Version              Previous Versions:   1  2  3  4  5  6  7  8  9  

Terminal Aerodrome Forecast

376
FTUS42 KFFC 290100 AAA
TAFPDK
TAF AMD
KPDK 290130Z 2902/2924 33007KT P6SM FEW070
     FM291600 34012G18KT P6SM SCT050=



Latest METAR

443
SAUS70 KWBC 291800 RRL
MTRPDK
METAR KPDK 291753Z 32010KT 10SM SCT060 27/13 A3001 RMK AO2 SLP146
T02670133 10272 20200 58006


USA.gov is the U.S. government's official web portal to all federal, state and local government web resources and services.